sensor_id;sensor_type;location;lat;lon;timestamp;P1;durP1;ratioP1;P2;durP2;ratioP2
9260;SDS011;4667;42.726;23.252;2023-11-19T11:27:50;5.37;;;4.33;;
9260;SDS011;4667;42.726;23.252;2023-11-19T11:30:29;4.23;;;3.67;;
9260;SDS011;4667;42.726;23.252;2023-11-19T11:33:05;3.53;;;3.23;;
9260;SDS011;4667;42.726;23.252;2023-11-19T11:35:50;5.13;;;4.63;;
9260;SDS011;4667;42.726;23.252;2023-11-19T11:38:22;4.63;;;4.17;;
9260;SDS011;4667;42.726;23.252;2023-11-19T11:43:49;3.40;;;3.10;;
9260;SDS011;4667;42.726;23.252;2023-11-19T11:49:26;5.23;;;4.30;;
9260;SDS011;4667;42.726;23.252;2023-11-19T11:51:58;3.90;;;3.30;;
9260;SDS011;4667;42.726;23.252;2023-11-19T11:54:28;3.53;;;3.20;;
9260;SDS011;4667;42.726;23.252;2023-11-19T11:57:03;2.97;;;2.73;;
9260;SDS011;4667;42.726;23.252;2023-11-19T11:59:41;3.07;;;2.87;;
9260;SDS011;4667;42.726;23.252;2023-11-19T12:02:12;3.70;;;3.30;;
9260;SDS011;4667;42.726;23.252;2023-11-19T12:04:41;3.17;;;2.87;;
9260;SDS011;4667;42.726;23.252;2023-11-19T12:07:11;2.47;;;2.27;;
9260;SDS011;4667;42.726;23.252;2023-11-19T12:09:40;3.73;;;2.87;;
9260;SDS011;4667;42.726;23.252;2023-11-19T12:12:11;3.63;;;3.03;;
9260;SDS011;4667;42.726;23.252;2023-11-19T12:15:04;3.57;;;2.83;;
9260;SDS011;4667;42.726;23.252;2023-11-19T12:17:41;3.83;;;3.50;;
9260;SDS011;4667;42.726;23.252;2023-11-19T12:20:14;3.00;;;2.67;;
9260;SDS011;4667;42.726;23.252;2023-11-19T12:22:45;3.10;;;2.80;;
9260;SDS011;4667;42.726;23.252;2023-11-19T12:25:14;3.17;;;2.90;;
9260;SDS011;4667;42.726;23.252;2023-11-19T12:27:43;4.37;;;3.37;;
9260;SDS011;4667;42.726;23.252;2023-11-19T12:30:18;4.60;;;3.33;;
9260;SDS011;4667;42.726;23.252;2023-11-19T12:32:52;3.60;;;3.30;;
9260;SDS011;4667;42.726;23.252;2023-11-19T12:35:19;3.63;;;3.30;;
9260;SDS011;4667;42.726;23.252;2023-11-19T12:37:47;3.13;;;2.83;;
9260;SDS011;4667;42.726;23.252;2023-11-19T12:40:15;3.20;;;2.90;;
9260;SDS011;4667;42.726;23.252;2023-11-19T12:42:44;4.53;;;3.87;;
9260;SDS011;4667;42.726;23.252;2023-11-19T12:45:11;3.60;;;3.30;;
9260;SDS011;4667;42.726;23.252;2023-11-19T12:47:47;4.93;;;4.43;;
9260;SDS011;4667;42.726;23.252;2023-11-19T12:50:17;4.20;;;3.80;;
9260;SDS011;4667;42.726;23.252;2023-11-19T12:52:55;7.33;;;4.13;;
9260;SDS011;4667;42.726;23.252;2023-11-19T12:55:25;3.90;;;3.60;;
9260;SDS011;4667;42.726;23.252;2023-11-19T12:57:54;4.50;;;3.67;;
9260;SDS011;4667;42.726;23.252;2023-11-19T13:00:22;5.30;;;4.30;;
9260;SDS011;4667;42.726;23.252;2023-11-19T13:02:52;5.40;;;3.53;;
9260;SDS011;4667;42.726;23.252;2023-11-19T13:05:26;3.77;;;3.40;;
9260;SDS011;4667;42.726;23.252;2023-11-19T13:08:00;5.80;;;3.67;;
9260;SDS011;4667;42.726;23.252;2023-11-19T13:10:29;5.33;;;3.67;;
9260;SDS011;4667;42.726;23.252;2023-11-19T13:13:00;4.13;;;3.37;;
9260;SDS011;4667;42.726;23.252;2023-11-19T13:15:31;3.67;;;3.30;;
9260;SDS011;4667;42.726;23.252;2023-11-19T13:18:00;3.40;;;3.10;;
9260;SDS011;4667;42.726;23.252;2023-11-19T13:20:27;3.80;;;3.40;;
9260;SDS011;4667;42.726;23.252;2023-11-19T13:22:55;3.70;;;3.20;;
9260;SDS011;4667;42.726;23.252;2023-11-19T13:25:23;6.13;;;5.13;;
9260;SDS011;4667;42.726;23.252;2023-11-19T13:27:50;4.57;;;3.70;;
9260;SDS011;4667;42.726;23.252;2023-11-19T13:30:17;4.37;;;3.83;;
9260;SDS011;4667;42.726;23.252;2023-11-19T13:32:44;5.23;;;4.07;;
9260;SDS011;4667;42.726;23.252;2023-11-19T13:35:13;5.53;;;3.80;;
9260;SDS011;4667;42.726;23.252;2023-11-19T13:37:40;4.20;;;3.80;;
9260;SDS011;4667;42.726;23.252;2023-11-19T13:40:08;3.87;;;3.53;;
9260;SDS011;4667;42.726;23.252;2023-11-19T13:42:39;5.33;;;4.83;;
9260;SDS011;4667;42.726;23.252;2023-11-19T13:45:08;5.80;;;5.30;;
9260;SDS011;4667;42.726;23.252;2023-11-19T13:47:38;5.53;;;4.90;;
9260;SDS011;4667;42.726;23.252;2023-11-19T13:50:07;5.33;;;4.50;;
9260;SDS011;4667;42.726;23.252;2023-11-19T13:52:38;5.20;;;4.13;;
9260;SDS011;4667;42.726;23.252;2023-11-19T13:55:06;4.90;;;4.40;;
9260;SDS011;4667;42.726;23.252;2023-11-19T13:57:35;6.53;;;5.47;;
9260;SDS011;4667;42.726;23.252;2023-11-19T14:00:04;5.10;;;4.37;;
9260;SDS011;4667;42.726;23.252;2023-11-19T14:02:37;5.50;;;4.30;;
9260;SDS011;4667;42.726;23.252;2023-11-19T14:05:07;5.33;;;4.00;;
9260;SDS011;4667;42.726;23.252;2023-11-19T14:07:35;7.03;;;4.63;;
9260;SDS011;4667;42.726;23.252;2023-11-19T14:10:04;5.47;;;4.10;;
9260;SDS011;4667;42.726;23.252;2023-11-19T14:12:34;4.70;;;4.30;;
9260;SDS011;4667;42.726;23.252;2023-11-19T14:15:03;5.73;;;4.23;;
9260;SDS011;4667;42.726;23.252;2023-11-19T14:17:31;5.80;;;4.27;;
9260;SDS011;4667;42.726;23.252;2023-11-19T14:19:59;5.70;;;5.10;;
9260;SDS011;4667;42.726;23.252;2023-11-19T14:22:31;6.80;;;5.63;;
9260;SDS011;4667;42.726;23.252;2023-11-19T14:25:03;9.03;;;5.20;;
9260;SDS011;4667;42.726;23.252;2023-11-19T14:27:35;6.77;;;5.00;;
9260;SDS011;4667;42.726;23.252;2023-11-19T14:30:03;6.60;;;4.60;;
9260;SDS011;4667;42.726;23.252;2023-11-19T14:32:35;4.17;;;3.77;;
9260;SDS011;4667;42.726;23.252;2023-11-19T14:35:02;5.30;;;4.40;;
9260;SDS011;4667;42.726;23.252;2023-11-19T14:37:29;6.87;;;4.23;;
9260;SDS011;4667;42.726;23.252;2023-11-19T14:39:57;5.37;;;4.40;;
9260;SDS011;4667;42.726;23.252;2023-11-19T14:42:25;4.60;;;4.20;;
9260;SDS011;4667;42.726;23.252;2023-11-19T14:44:52;5.83;;;5.03;;
9260;SDS011;4667;42.726;23.252;2023-11-19T14:47:20;5.27;;;4.63;;
9260;SDS011;4667;42.726;23.252;2023-11-19T14:49:48;6.93;;;5.47;;
9260;SDS011;4667;42.726;23.252;2023-11-19T14:52:28;5.90;;;5.30;;
9260;SDS011;4667;42.726;23.252;2023-11-19T14:54:58;5.00;;;4.50;;
9260;SDS011;4667;42.726;23.252;2023-11-19T14:57:40;6.57;;;5.00;;
9260;SDS011;4667;42.726;23.252;2023-11-19T15:00:09;6.50;;;5.27;;
9260;SDS011;4667;42.726;23.252;2023-11-19T15:02:39;7.47;;;5.17;;
9260;SDS011;4667;42.726;23.252;2023-11-19T15:05:09;5.37;;;4.73;;
9260;SDS011;4667;42.726;23.252;2023-11-19T15:07:36;6.67;;;5.17;;
9260;SDS011;4667;42.726;23.252;2023-11-19T15:10:03;6.57;;;5.87;;
9260;SDS011;4667;42.726;23.252;2023-11-19T15:12:35;8.57;;;5.80;;
9260;SDS011;4667;42.726;23.252;2023-11-19T15:17:54;11.83;;;6.33;;
9260;SDS011;4667;42.726;23.252;2023-11-19T15:20:22;8.23;;;5.97;;
9260;SDS011;4667;42.726;23.252;2023-11-19T15:22:49;7.57;;;6.17;;
9260;SDS011;4667;42.726;23.252;2023-11-19T15:25:17;8.20;;;6.17;;
9260;SDS011;4667;42.726;23.252;2023-11-19T15:27:43;9.97;;;6.03;;
9260;SDS011;4667;42.726;23.252;2023-11-19T15:30:11;10.20;;;6.93;;
9260;SDS011;4667;42.726;23.252;2023-11-19T15:32:40;11.23;;;8.87;;
9260;SDS011;4667;42.726;23.252;2023-11-19T15:35:08;14.37;;;11.70;;
9260;SDS011;4667;42.726;23.252;2023-11-19T15:37:35;12.53;;;10.87;;
9260;SDS011;4667;42.726;23.252;2023-11-19T15:40:05;12.27;;;8.43;;
9260;SDS011;4667;42.726;23.252;2023-11-19T15:42:38;11.27;;;8.67;;
9260;SDS011;4667;42.726;23.252;2023-11-19T15:45:08;9.50;;;7.13;;
9260;SDS011;4667;42.726;23.252;2023-11-19T15:47:37;7.97;;;6.30;;
9260;SDS011;4667;42.726;23.252;2023-11-19T15:50:06;7.20;;;5.33;;
9260;SDS011;4667;42.726;23.252;2023-11-19T15:52:35;7.10;;;5.17;;
9260;SDS011;4667;42.726;23.252;2023-11-19T15:55:03;7.43;;;5.23;;
9260;SDS011;4667;42.726;23.252;2023-11-19T15:57:30;6.00;;;5.17;;
9260;SDS011;4667;42.726;23.252;2023-11-19T16:00:03;6.77;;;5.50;;
9260;SDS011;4667;42.726;23.252;2023-11-19T16:02:30;7.93;;;6.07;;
9260;SDS011;4667;42.726;23.252;2023-11-19T16:04:57;5.93;;;5.07;;
9260;SDS011;4667;42.726;23.252;2023-11-19T16:07:25;6.43;;;4.33;;
9260;SDS011;4667;42.726;23.252;2023-11-19T16:09:54;6.07;;;5.17;;
9260;SDS011;4667;42.726;23.252;2023-11-19T16:12:21;6.27;;;5.67;;
9260;SDS011;4667;42.726;23.252;2023-11-19T16:14:48;6.90;;;5.70;;
9260;SDS011;4667;42.726;23.252;2023-11-19T16:17:15;7.63;;;6.53;;
9260;SDS011;4667;42.726;23.252;2023-11-19T16:19:42;5.93;;;4.97;;
9260;SDS011;4667;42.726;23.252;2023-11-19T16:22:09;7.80;;;5.00;;
9260;SDS011;4667;42.726;23.252;2023-11-19T16:24:38;5.07;;;4.27;;
9260;SDS011;4667;42.726;23.252;2023-11-19T16:27:05;5.83;;;4.77;;
9260;SDS011;4667;42.726;23.252;2023-11-19T16:29:32;6.27;;;5.33;;
9260;SDS011;4667;42.726;23.252;2023-11-19T16:31:59;8.27;;;5.43;;
